Time;durP1;ratioP1;P1;durP2;ratioP2;P2;SDS_P1;SDS_P2;PMS_P1;PMS_P2;Temp;Humidity;BMP_temperature;BMP_pressure;BME280_temperature;BME280_humidity;BME280_pressure;Samples;Min_cycle;Max_cycle;Signal;HPM_P1;HPM_P2
2022/06/21 00:00:17;;;;;;;2.08;1.50;;;;;;;20.49;47.89;100760.97;2101817;28;20503;-76
2022/06/21 00:01:39;;;;;;;2.85;1.30;;;;;;;20.47;48.12;100760.16;2104421;28;20044;-76
2022/06/21 00:03:06;;;;;;;2.42;1.20;;;;;;;20.49;47.86;100761.88;2100969;28;20082;-75
2022/06/21 00:04:29;;;;;;;2.83;1.48;;;;;;;20.50;48.02;100762.75;2095308;28;20095;-75
2022/06/21 00:05:51;;;;;;;2.63;1.50;;;;;;;20.52;47.76;100761.81;2101371;28;20519;-75
2022/06/21 00:07:21;;;;;;;7.53;1.63;;;;;;;20.54;47.96;100764.47;2096081;28;20060;-75
2022/06/21 00:08:44;;;;;;;2.28;1.35;;;;;;;20.54;47.83;100762.66;2101852;28;20036;-75
2022/06/21 00:10:11;;;;;;;2.95;1.48;;;;;;;20.55;47.84;100755.47;2096175;28;20053;-75
2022/06/21 00:11:35;;;;;;;1.77;1.17;;;;;;;20.54;47.72;100761.78;2102943;28;20044;-75
2022/06/21 00:12:57;;;;;;;3.13;1.20;;;;;;;20.50;47.76;100766.31;2112255;28;20046;-75
2022/06/21 00:14:19;;;;;;;2.15;1.50;;;;;;;20.49;47.79;100752.94;2103176;28;20510;-75
2022/06/21 00:15:45;;;;;;;3.60;1.30;;;;;;;20.48;47.95;100754.72;2102396;28;20051;-75
2022/06/21 00:17:09;;;;;;;3.10;1.30;;;;;;;20.47;47.87;100754.81;2095334;28;20123;-75
2022/06/21 00:18:34;;;;;;;1.73;1.20;;;;;;;20.47;47.99;100755.69;2097562;28;20063;-75
2022/06/21 00:19:57;;;;;;;1.63;1.20;;;;;;;20.45;48.08;100756.63;2095158;28;20526;-75
2022/06/21 00:21:23;;;;;;;3.00;1.23;;;;;;;20.45;47.99;100762.88;2102923;28;20126;-75
2022/06/21 00:22:46;;;;;;;3.15;1.42;;;;;;;20.43;48.11;100756.66;2102185;28;20051;-75
2022/06/21 00:24:08;;;;;;;2.15;1.40;;;;;;;20.46;47.91;100763.75;2100561;28;20052;-75
2022/06/21 00:25:29;;;;;;;2.15;1.70;;;;;;;20.48;48.12;100757.41;2101707;28;20102;-75
2022/06/21 00:26:52;;;;;;;6.85;1.30;;;;;;;20.48;48.00;100757.41;2094462;28;20063;-75
2022/06/21 00:28:15;;;;;;;2.38;1.20;;;;;;;20.48;48.18;100754.72;2100674;28;20530;-75
2022/06/21 00:29:38;;;;;;;1.88;1.38;;;;;;;20.46;48.26;100759.28;2102608;28;20048;-76
2022/06/21 00:31:02;;;;;;;3.72;1.65;;;;;;;20.46;48.14;100756.59;2100550;28;20071;-75
2022/06/21 00:32:23;;;;;;;2.75;1.52;;;;;;;20.46;48.28;100753.03;2101638;28;20066;-76
2022/06/21 00:33:47;;;;;;;2.25;1.17;;;;;;;20.44;48.62;100749.50;2106248;28;20039;-76
2022/06/21 00:35:13;;;;;;;2.40;1.15;;;;;;;20.45;48.49;100748.59;2104308;28;20048;-74
2022/06/21 00:36:37;;;;;;;2.83;1.70;;;;;;;20.44;48.75;100742.34;2110633;28;20621;-75
2022/06/21 00:38:00;;;;;;;2.47;1.27;;;;;;;20.45;48.92;100738.75;2105918;28;20048;-76
2022/06/21 00:39:22;;;;;;;3.20;1.30;;;;;;;20.46;48.78;100740.50;2105241;28;20127;-76
2022/06/21 00:40:44;;;;;;;2.22;1.40;;;;;;;20.46;48.89;100743.19;2104980;28;20048;-75
2022/06/21 00:42:17;;;;;;;4.68;1.75;;;;;;;20.50;49.12;100746.66;2097456;28;20775;-75
2022/06/21 00:43:46;;;;;;;2.60;1.60;;;;;;;20.50;49.39;100739.50;2107756;28;20143;-76
2022/06/21 00:45:14;;;;;;;3.25;1.65;;;;;;;20.51;49.57;100745.75;2113913;28;20080;-76
2022/06/21 00:46:43;;;;;;;4.28;1.65;;;;;;;20.51;49.80;100746.63;2098920;28;20051;-76
2022/06/21 00:48:19;;;;;;;2.40;1.48;;;;;;;20.50;49.88;100739.50;2095622;28;20085;-75
2022/06/21 00:49:47;;;;;;;2.20;1.42;;;;;;;20.48;49.95;100738.63;2090180;28;20048;-75
2022/06/21 00:51:15;;;;;;;1.77;1.50;;;;;;;20.45;50.10;100746.78;2102152;28;20052;-76
2022/06/21 00:52:43;;;;;;;3.03;1.73;;;;;;;20.43;50.13;100745.94;2095423;28;20102;-76
2022/06/21 00:54:13;;;;;;;2.42;1.83;;;;;;;20.43;50.54;100745.03;2098182;28;20088;-75
2022/06/21 00:55:45;;;;;;;3.78;1.85;;;;;;;20.42;50.72;100744.16;2112286;28;20132;-75
2022/06/21 00:57:15;;;;;;;3.10;1.63;;;;;;;20.42;50.77;100746.84;2111906;28;20040;-76
2022/06/21 00:58:36;;;;;;;3.00;1.52;;;;;;;20.41;50.90;100749.59;2112463;28;20619;-76
2022/06/21 01:00:24;;;;;;;2.63;1.98;;;;;;;20.39;50.95;100748.75;2105718;28;20172;-76
2022/06/21 01:01:49;;;;;;;2.33;1.90;;;;;;;20.36;51.23;100748.78;2114127;28;20077;-75
2022/06/21 01:03:18;;;;;;;3.35;2.00;;;;;;;20.37;51.05;100739.84;2107643;28;20138;-76
2022/06/21 01:04:45;;;;;;;2.85;1.85;;;;;;;20.36;51.33;100738.97;2112415;28;20138;-76
2022/06/21 01:06:13;;;;;;;4.22;1.67;;;;;;;20.35;51.42;100736.34;2108532;28;20048;-76
2022/06/21 01:07:36;;;;;;;2.28;1.90;;;;;;;20.33;51.49;100735.47;2111808;28;20044;-76
2022/06/21 01:09:02;;;;;;;3.85;1.67;;;;;;;20.34;51.97;100745.28;2105624;28;20067;-75
2022/06/21 01:10:26;;;;;;;3.13;1.75;;;;;;;20.32;52.17;100734.56;2111662;28;20058;-75
2022/06/21 01:11:54;;;;;;;2.97;2.13;;;;;;;20.30;52.17;100733.72;2104715;28;20047;-75
2022/06/21 01:13:20;;;;;;;3.17;1.90;;;;;;;20.24;52.63;100731.19;2101999;28;20036;-76
2022/06/21 01:14:48;;;;;;;4.88;2.17;;;;;;;20.22;52.54;100731.22;2101654;28;20151;-75
2022/06/21 01:16:11;;;;;;;3.72;1.85;;;;;;;20.20;52.92;100725.03;2103602;28;20040;-75
2022/06/21 01:17:36;;;;;;;2.90;1.75;;;;;;;20.20;52.69;100729.50;2102791;28;20504;-76
2022/06/21 01:19:01;;;;;;;5.38;1.90;;;;;;;20.19;52.84;100727.75;2102106;28;20118;-76
2022/06/21 01:20:25;;;;;;;4.70;1.60;;;;;;;20.18;52.60;100721.50;2102855;28;20138;-76
2022/06/21 01:21:50;;;;;;;3.65;1.65;;;;;;;20.17;52.43;100722.41;2098569;28;20150;-75
2022/06/21 01:23:23;;;;;;;2.40;1.80;;;;;;;20.17;52.30;100718.84;2096424;28;20428;-76
2022/06/21 01:24:54;;;;;;;3.55;1.67;;;;;;;20.14;52.41;100714.47;2095912;28;20044;-75
2022/06/21 01:26:49;;;;;;;2.00;1.35;;;;;;;20.12;52.56;100712.72;2108797;28;20090;-76
2022/06/21 01:28:13;;;;;;;3.05;1.60;;;;;;;20.07;52.61;100706.59;2103788;28;20163;-75
2022/06/21 01:29:35;;;;;;;3.92;2.08;;;;;;;20.02;52.48;100712.06;2089644;28;20046;-76
2022/06/21 01:30:59;;;;;;;2.53;1.52;;;;;;;20.00;52.46;100704.97;2095906;28;20052;-75
2022/06/21 01:32:21;;;;;;;4.05;1.98;;;;;;;19.98;52.48;100698.78;2088218;28;20064;-76
2022/06/21 01:33:44;;;;;;;3.72;1.95;;;;;;;19.96;52.52;100708.63;2090881;28;20853;-75
2022/06/21 01:35:12;;;;;;;2.67;1.50;;;;;;;19.92;52.72;100698.91;2101538;28;20044;-75
2022/06/21 01:36:37;;;;;;;3.50;1.98;;;;;;;19.88;53.12;100706.16;2100568;28;20547;-76
2022/06/21 01:38:00;;;;;;;5.07;2.63;;;;;;;19.88;53.45;100709.72;2100897;28;20127;-75
2022/06/21 01:39:28;;;;;;;6.03;2.88;;;;;;;19.90;53.75;100704.31;2097251;28;20473;-76
2022/06/21 01:40:53;;;;;;;2.38;1.63;;;;;;;19.94;54.05;100710.50;2098563;28;20089;-75
2022/06/21 01:42:20;;;;;;;3.88;2.10;;;;;;;19.94;53.97;100710.50;2099592;28;20044;-75
2022/06/21 01:43:47;;;;;;;3.45;1.80;;;;;;;19.96;53.94;100714.00;2102623;28;20078;-76
2022/06/21 01:45:13;;;;;;;3.15;1.80;;;;;;;19.95;53.99;100710.47;2103000;28;20055;-74
2022/06/21 01:46:36;;;;;;;3.28;2.17;;;;;;;19.94;54.22;100713.16;2102584;28;20093;-75
2022/06/21 01:48:04;;;;;;;6.70;2.40;;;;;;;19.92;54.36;100717.69;2101650;28;20051;-75
2022/06/21 01:49:32;;;;;;;4.60;1.90;;;;;;;19.89;54.43;100716.81;2103104;28;20079;-76
2022/06/21 01:50:58;;;;;;;4.30;2.08;;;;;;;19.88;54.52;100712.41;2097785;28;20083;-76
2022/06/21 01:52:23;;;;;;;3.88;1.80;;;;;;;19.88;54.41;100711.53;2102893;28;20044;-76
2022/06/21 01:53:46;;;;;;;4.93;2.30;;;;;;;19.87;54.39;100718.69;2109009;28;20039;-75
2022/06/21 01:55:14;;;;;;;2.92;2.10;;;;;;;19.88;54.59;100727.59;2105242;28;20071;-75
2022/06/21 01:56:42;;;;;;;3.40;2.05;;;;;;;19.86;54.52;100722.28;2096737;28;20052;-76
2022/06/21 01:58:07;;;;;;;4.68;2.05;;;;;;;19.85;54.62;100712.47;2103252;28;20044;-75
2022/06/21 01:59:35;;;;;;;3.47;1.70;;;;;;;19.84;54.60;100721.41;2096961;28;20060;-75
2022/06/21 02:01:01;;;;;;;5.15;2.13;;;;;;;19.82;54.89;100723.22;2104322;28;20067;-76
2022/06/21 02:02:28;;;;;;;5.32;2.53;;;;;;;19.81;55.26;100725.97;2103869;28;20052;-75
2022/06/21 02:03:58;;;;;;;3.42;2.40;;;;;;;19.81;55.47;100728.66;2093043;28;20044;-74
2022/06/21 02:05:23;;;;;;;2.85;1.95;;;;;;;19.79;55.55;100734.03;2093661;28;20103;-76
2022/06/21 02:06:48;;;;;;;4.60;2.63;;;;;;;19.76;56.05;100728.75;2094342;28;20127;-75
2022/06/21 02:08:14;;;;;;;4.28;2.88;;;;;;;19.74;56.76;100725.22;2094056;28;20124;-75
2022/06/21 02:09:43;;;;;;;3.42;2.40;;;;;;;19.74;56.81;100735.94;2095209;28;20036;-75
2022/06/21 02:11:12;;;;;;;3.15;2.20;;;;;;;19.74;56.84;100730.59;2097064;28;20511;-74
2022/06/21 02:12:35;;;;;;;2.90;2.30;;;;;;;19.74;56.47;100727.03;2094937;28;20091;-75
2022/06/21 02:15:48;;;;;;;3.20;2.00;;;;;;;19.71;55.75;100736.00;2105108;28;20039;-75
2022/06/21 02:17:17;;;;;;;4.22;2.25;;;;;;;19.69;55.67;100732.47;2094890;28;20048;-75
2022/06/21 02:18:44;;;;;;;2.75;1.90;;;;;;;19.69;55.61;100736.97;2094691;28;20048;-75
2022/06/21 02:20:14;;;;;;;3.75;2.20;;;;;;;19.66;55.59;100732.56;2100332;28;20056;-76
2022/06/21 02:21:40;;;;;;;4.45;2.40;;;;;;;19.64;55.78;100742.41;2095087;28;20094;-75
2022/06/21 02:23:04;;;;;;;9.40;3.05;;;;;;;19.58;56.11;100739.88;2099265;28;20048;-76
2022/06/21 02:24:28;;;;;;;3.30;2.22;;;;;;;19.57;56.46;100747.91;2101865;28;20495;-75
2022/06/21 02:25:53;;;;;;;3.70;2.03;;;;;;;19.55;56.31;100741.75;2101396;28;20044;-75
2022/06/21 02:27:17;;;;;;;4.47;2.00;;;;;;;19.54;56.18;100743.53;2100905;28;20444;-76
2022/06/21 02:28:38;;;;;;;2.88;2.00;;;;;;;19.47;56.15;100747.25;2094340;28;20062;-76
2022/06/21 02:30:08;;;;;;;3.85;2.15;;;;;;;19.44;56.65;100739.25;2107065;28;20111;-76
2022/06/21 02:31:33;;;;;;;6.03;2.15;;;;;;;19.41;57.32;100747.34;2095500;28;20501;-76
2022/06/21 02:32:59;;;;;;;4.38;2.30;;;;;;;19.39;57.37;100746.50;2095806;28;20384;-76
2022/06/21 02:34:37;;;;;;;4.07;2.22;;;;;;;19.37;57.37;100743.84;2092191;28;20063;-74
2022/06/21 02:36:02;;;;;;;3.97;2.50;;;;;;;19.34;57.55;100740.34;2096419;28;20040;-75
2022/06/21 02:37:25;;;;;;;3.30;2.08;;;;;;;19.32;57.83;100747.53;2100353;28;20074;-75
2022/06/21 02:38:54;;;;;;;6.13;2.28;;;;;;;19.30;57.65;100744.00;2110448;28;20039;-75
2022/06/21 02:40:21;;;;;;;3.20;2.08;;;;;;;19.26;57.71;100751.22;2103641;28;20427;-75
2022/06/21 02:41:48;;;;;;;7.25;2.50;;;;;;;19.24;57.71;100741.44;2103865;28;20217;-75
2022/06/21 02:43:17;;;;;;;5.80;2.13;;;;;;;19.21;57.88;100749.56;2103047;28;20143;-75
2022/06/21 02:44:42;;;;;;;3.25;2.33;;;;;;;19.17;57.97;100746.03;2102564;28;20075;-74
2022/06/21 02:46:09;;;;;;;3.13;1.80;;;;;;;19.16;57.93;100743.41;2101563;28;20051;-76
2022/06/21 02:47:40;;;;;;;3.92;2.10;;;;;;;19.14;58.04;100737.19;2094610;28;20134;-74
2022/06/21 02:49:06;;;;;;;3.40;2.53;;;;;;;19.13;58.15;100735.44;2098554;28;20515;-75
2022/06/21 02:50:37;;;;;;;5.25;2.30;;;;;;;19.14;58.34;100724.72;2110909;28;20511;-74
2022/06/21 02:52:02;;;;;;;4.40;2.67;;;;;;;19.15;58.34;100729.16;2106891;28;20047;-75
2022/06/21 02:53:29;;;;;;;5.13;2.42;;;;;;;19.18;58.89;100730.84;2105316;28;20044;-74
2022/06/21 02:55:02;;;;;;;5.00;2.30;;;;;;;19.17;59.13;100729.97;2109471;28;20437;-75
2022/06/21 02:56:28;;;;;;;4.53;2.78;;;;;;;19.10;59.51;100736.34;2104636;28;20093;-74
2022/06/21 02:57:57;;;;;;;4.63;2.40;;;;;;;19.08;59.88;100733.75;2093730;28;20052;-75
2022/06/21 02:59:19;;;;;;;5.55;2.58;;;;;;;19.10;60.13;100733.69;2109759;28;20075;-75
2022/06/21 03:00:42;;;;;;;4.57;2.92;;;;;;;19.17;60.39;100731.78;2102968;28;20055;-75
2022/06/21 03:02:09;;;;;;;5.40;2.70;;;;;;;19.19;60.51;100730.84;2109508;28;20048;-75
2022/06/21 03:03:36;;;;;;;3.45;2.60;;;;;;;19.20;60.51;100721.00;2095413;28;20230;-75
2022/06/21 03:05:01;;;;;;;4.75;2.85;;;;;;;19.18;60.39;100722.84;2104880;28;20467;-75
2022/06/21 03:06:24;;;;;;;5.15;2.72;;;;;;;19.17;60.44;100721.06;2102703;28;20569;-75
2022/06/21 03:07:48;;;;;;;6.20;2.50;;;;;;;19.18;60.29;100723.72;2101622;28;20179;-75
2022/06/21 03:09:15;;;;;;;5.80;2.42;;;;;;;19.18;60.57;100726.41;2102516;28;20125;-75
2022/06/21 03:10:42;;;;;;;5.00;2.83;;;;;;;19.21;60.70;100725.47;2092429;28;20072;-74
2022/06/21 03:12:07;;;;;;;4.68;2.40;;;;;;;19.25;60.70;100721.78;2100917;28;20373;-75
2022/06/21 03:13:35;;;;;;;4.18;2.55;;;;;;;19.27;60.56;100719.97;2096468;28;20055;-75
2022/06/21 03:15:02;;;;;;;3.78;2.30;;;;;;;19.30;60.67;100718.09;2094872;28;20185;-74
2022/06/21 03:16:24;;;;;;;6.63;2.90;;;;;;;19.32;60.71;100729.69;2101107;28;20047;-75
2022/06/21 03:17:53;;;;;;;4.40;2.60;;;;;;;19.35;60.80;100720.72;2092929;28;20051;-75
2022/06/21 03:19:22;;;;;;;4.57;2.45;;;;;;;19.41;60.75;100720.56;2105759;28;20130;-75
2022/06/21 03:20:46;;;;;;;4.70;2.60;;;;;;;19.47;60.70;100717.81;2103588;28;20156;-75
2022/06/21 03:22:17;;;;;;;6.68;2.40;;;;;;;19.56;60.53;100719.41;2110378;28;20534;-75
2022/06/21 03:23:41;;;;;;;4.60;3.00;;;;;;;19.60;60.41;100718.41;2104756;28;20040;-76
2022/06/21 03:25:08;;;;;;;4.35;2.50;;;;;;;19.67;60.37;100715.56;2101196;28;20488;-76
2022/06/21 03:26:30;;;;;;;3.63;2.70;;;;;;;19.76;60.21;100714.47;2095234;28;20073;-76
2022/06/21 03:27:55;;;;;;;3.40;2.05;;;;;;;19.83;59.79;100718.75;2093392;28;20139;-75
2022/06/21 03:29:18;;;;;;;5.05;2.47;;;;;;;19.89;59.94;100719.50;2100283;28;20445;-74
2022/06/21 03:30:40;;;;;;;3.17;2.13;;;;;;;19.97;59.75;100719.31;2100912;28;20044;-74
2022/06/21 03:32:04;;;;;;;7.18;2.72;;;;;;;20.04;59.32;100715.59;2094414;28;20102;-74
2022/06/21 03:33:26;;;;;;;2.88;2.15;;;;;;;20.11;59.47;100714.53;2098996;28;20052;-74
2022/06/21 03:34:51;;;;;;;5.43;2.25;;;;;;;20.18;59.14;100713.47;2095957;28;20055;-75
2022/06/21 03:36:16;;;;;;;3.03;2.10;;;;;;;20.28;59.16;100711.44;2098852;28;20657;-75
2022/06/21 03:37:41;;;;;;;5.10;2.30;;;;;;;20.38;59.15;100712.09;2093520;28;20052;-74
2022/06/21 03:39:06;;;;;;;3.97;1.98;;;;;;;20.47;58.85;100709.19;2099933;28;20527;-75
2022/06/21 03:42:08;;;;;;;5.68;2.00;;;;;;;20.68;58.57;100712.19;2087332;28;20045;-75
2022/06/21 03:43:35;;;;;;;3.15;2.15;;;;;;;20.79;58.49;100700.28;2099160;28;20044;-74
2022/06/21 03:45:02;;;;;;;4.00;2.42;;;;;;;20.91;58.24;100716.06;2096972;28;20072;-74
2022/06/21 03:46:31;;;;;;;3.03;2.03;;;;;;;21.01;58.06;100699.63;2104205;28;20667;-74
2022/06/21 03:47:58;;;;;;;5.60;1.83;;;;;;;21.15;57.90;100715.34;2103987;28;20086;-74
2022/06/21 03:49:29;;;;;;;2.60;1.75;;;;;;;21.24;57.64;100709.78;2103928;28;20052;-74
2022/06/21 03:50:59;;;;;;;4.80;2.00;;;;;;;21.34;57.48;100703.19;2095434;28;20473;-74
2022/06/21 03:54:09;;;;;;;5.43;2.15;;;;;;;21.58;57.19;100700.72;2120992;27;20427;-73
2022/06/21 03:55:43;;;;;;;3.03;1.80;;;;;;;21.70;56.97;100711.06;2118554;28;20078;-73
2022/06/21 03:57:09;;;;;;;4.38;1.98;;;;;;;21.85;56.87;100710.59;2117049;28;20514;-73
2022/06/21 03:58:44;;;;;;;4.72;2.67;;;;;;;21.99;56.47;100703.00;2101869;28;20607;-73
2022/06/21 04:00:11;;;;;;;4.53;1.80;;;;;;;22.14;56.24;100704.31;2125968;27;20047;-73
2022/06/21 04:01:41;;;;;;;5.05;1.90;;;;;;;22.29;55.53;100703.81;2122680;27;20472;-72
2022/06/21 04:03:08;;;;;;;4.20;1.90;;;;;;;22.41;55.24;100705.19;2103433;28;20044;-73
2022/06/21 04:04:36;;;;;;;3.22;1.67;;;;;;;22.51;54.97;100695.91;2118684;28;20124;-74
2022/06/21 04:06:03;;;;;;;5.93;1.88;;;;;;;22.65;54.65;100694.47;2107641;28;20135;-74
2022/06/21 04:07:32;;;;;;;5.50;2.10;;;;;;;22.80;54.62;100700.28;2116615;28;20078;-73
2022/06/21 04:09:01;;;;;;;2.72;1.73;;;;;;;22.96;54.41;100702.38;2118755;28;20035;-73
2022/06/21 04:10:31;;;;;;;5.45;2.03;;;;;;;23.15;54.24;100699.00;2121013;27;20059;-73
2022/06/21 04:11:59;;;;;;;3.47;2.00;;;;;;;23.34;54.00;100694.69;2120627;28;20039;-73
2022/06/21 04:13:31;;;;;;;2.33;1.80;;;;;;;23.55;53.93;100710.06;2103122;28;20080;-74
2022/06/21 04:14:59;;;;;;;3.20;2.00;;;;;;;23.75;53.46;100696.69;2108910;28;20138;-74
2022/06/21 04:16:26;;;;;;;3.10;1.77;;;;;;;23.96;53.15;100702.16;2112900;28;20070;-73
2022/06/21 04:17:54;;;;;;;4.03;1.88;;;;;;;24.13;52.70;100697.81;2112257;28;20055;-74
2022/06/21 04:19:24;;;;;;;3.60;1.80;;;;;;;24.33;52.51;100702.41;2107534;28;20143;-73
2022/06/21 04:20:52;;;;;;;4.05;1.98;;;;;;;24.53;51.91;100691.66;2123752;27;20067;-73
2022/06/21 04:22:23;;;;;;;3.20;1.92;;;;;;;24.75;51.38;100690.69;2111003;28;20667;-75
2022/06/21 04:23:49;;;;;;;5.28;2.00;;;;;;;24.96;51.05;100695.19;2111859;28;20075;-74
2022/06/21 04:25:16;;;;;;;2.60;1.25;;;;;;;25.15;50.59;100693.41;2111222;28;20039;-73
2022/06/21 04:26:49;;;;;;;3.03;1.80;;;;;;;25.38;50.08;100689.66;2106978;28;20570;-74
2022/06/21 04:28:16;;;;;;;5.60;1.92;;;;;;;25.59;49.85;100687.81;2118702;27;20047;-74
2022/06/21 04:29:43;;;;;;;2.53;1.40;;;;;;;25.78;49.17;100694.09;2111060;28;20071;-73
2022/06/21 04:31:11;;;;;;;2.00;1.75;;;;;;;25.95;48.92;100691.44;2117375;27;20043;-74
2022/06/21 04:32:40;;;;;;;4.13;1.80;;;;;;;26.17;47.93;100684.00;2125405;27;20043;-73
2022/06/21 04:34:10;;;;;;;4.78;1.70;;;;;;;26.42;47.48;100685.50;2112570;28;20077;-74
2022/06/21 04:35:36;;;;;;;3.05;1.95;;;;;;;26.63;46.87;100687.13;2111361;28;20071;-74
2022/06/21 04:37:04;;;;;;;2.85;1.30;;;;;;;26.86;46.66;100691.31;2113959;27;20453;-74
2022/06/21 04:38:32;;;;;;;4.13;2.15;;;;;;;27.09;46.14;100682.00;2111426;28;20036;-73
2022/06/21 04:40:02;;;;;;;3.38;1.60;;;;;;;27.33;45.67;100691.50;2109505;28;20055;-73
2022/06/21 04:41:30;;;;;;;2.58;1.40;;;;;;;27.58;44.77;100689.19;2117386;28;20039;-73
2022/06/21 04:43:01;;;;;;;4.13;1.83;;;;;;;27.86;44.10;100688.53;2108626;28;20059;-74
2022/06/21 04:44:29;;;;;;;2.83;1.33;;;;;;;28.13;43.94;100688.78;2115699;28;20417;-73
2022/06/21 04:45:56;;;;;;;2.42;1.48;;;;;;;28.41;43.42;100686.22;2110980;28;20044;-74
2022/06/21 04:47:24;;;;;;;3.13;1.30;;;;;;;28.70;42.68;100689.00;2108212;28;20083;-74
2022/06/21 04:48:54;;;;;;;3.22;1.50;;;;;;;29.00;42.10;100679.03;2098366;28;20131;-74
2022/06/21 04:50:25;;;;;;;3.55;1.50;;;;;;;29.31;41.08;100686.13;2114735;27;20051;-73
2022/06/21 04:51:52;;;;;;;2.90;1.48;;;;;;;29.59;40.62;100688.00;2118569;28;20052;-74
2022/06/21 04:53:22;;;;;;;3.35;1.40;;;;;;;29.85;39.93;100689.03;2110064;28;20051;-74
2022/06/21 04:54:45;;;;;;;7.63;1.60;;;;;;;30.12;39.38;100686.34;2109666;28;20051;-74
2022/06/21 04:56:14;;;;;;;2.83;1.58;;;;;;;30.36;38.98;100680.13;2109878;28;20550;-74
2022/06/21 04:57:37;;;;;;;2.22;1.45;;;;;;;30.58;38.65;100682.28;2102106;28;20041;-74
2022/06/21 04:59:02;;;;;;;2.97;1.10;;;;;;;30.84;38.11;100686.81;2111797;27;20194;-74
2022/06/21 05:00:24;;;;;;;2.72;1.48;;;;;;;31.06;37.59;100682.59;2110724;28;20081;-74
2022/06/21 05:01:45;;;;;;;2.45;1.50;;;;;;;31.30;37.21;100683.59;2111621;28;20044;-73
2022/06/21 05:03:14;;;;;;;4.50;1.58;;;;;;;31.51;36.53;100679.28;2099762;28;20431;-74
2022/06/21 05:04:39;;;;;;;3.65;1.98;;;;;;;31.71;36.17;100687.91;2121316;27;20039;-73
2022/06/21 05:06:02;;;;;;;2.13;1.23;;;;;;;31.86;35.76;100684.91;2107448;28;20512;-74
2022/06/21 05:07:30;;;;;;;2.63;1.50;;;;;;;32.06;35.59;100691.63;2101989;28;20075;-73
2022/06/21 05:08:53;;;;;;;2.90;1.20;;;;;;;32.20;35.06;100688.75;2102298;28;20067;-74
2022/06/21 05:10:18;;;;;;;3.92;1.48;;;;;;;32.29;34.27;100688.06;2118929;27;20102;-74
2022/06/21 05:11:41;;;;;;;4.07;1.58;;;;;;;32.46;34.11;100694.97;2108380;28;20138;-74
2022/06/21 05:13:07;;;;;;;3.60;1.30;;;;;;;32.63;33.64;100693.66;2103695;28;20046;-75
2022/06/21 05:14:37;;;;;;;3.55;1.33;;;;;;;32.78;33.17;100692.50;2102569;28;20422;-74
2022/06/21 05:16:04;;;;;;;6.18;2.13;;;;;;;32.97;33.30;100691.94;2104113;28;20134;-75
2022/06/21 05:17:26;;;;;;;2.55;1.40;;;;;;;33.10;32.90;100692.69;2095311;28;20049;-75
2022/06/21 05:18:54;;;;;;;2.95;1.20;;;;;;;33.20;32.49;100696.50;2105028;28;20045;-74
2022/06/21 05:20:19;;;;;;;3.58;2.08;;;;;;;33.32;32.32;100697.38;2109481;28;20044;-74
2022/06/21 05:21:47;;;;;;;2.20;1.52;;;;;;;33.48;31.96;100696.00;2114428;27;20047;-73
2022/06/21 05:23:13;;;;;;;6.22;1.50;;;;;;;33.62;31.84;100694.88;2109314;28;21120;-74
2022/06/21 05:24:36;;;;;;;1.88;1.40;;;;;;;33.73;31.56;100696.78;2086866;28;20044;-74
2022/06/21 05:26:03;;;;;;;4.13;1.30;;;;;;;33.78;31.09;100700.88;2100942;28;20135;-73
2022/06/21 05:27:29;;;;;;;2.15;1.27;;;;;;;33.79;31.21;100699.03;2104782;28;20584;-74
2022/06/21 05:28:56;;;;;;;2.25;1.33;;;;;;;33.84;30.75;100702.25;2118123;27;20142;-74
2022/06/21 05:30:27;;;;;;;2.13;1.02;;;;;;;33.84;30.34;100699.50;2097651;28;20075;-74
2022/06/21 05:31:54;;;;;;;2.90;1.25;;;;;;;33.80;30.44;100707.13;2093870;28;20059;-74
2022/06/21 05:33:23;;;;;;;2.47;1.20;;;;;;;33.89;30.40;100710.94;2102902;28;20067;-73
2022/06/21 05:34:49;;;;;;;2.00;1.02;;;;;;;33.99;30.53;100698.25;2103701;28;20044;-74
2022/06/21 05:36:16;;;;;;;2.13;1.30;;;;;;;34.16;30.36;100702.31;2109188;28;20424;-74
2022/06/21 05:37:49;;;;;;;5.78;1.42;;;;;;;34.22;29.96;100707.28;2098066;28;20576;-74
2022/06/21 05:39:20;;;;;;;3.60;1.30;;;;;;;34.20;29.97;100703.81;2108767;28;20142;-74
2022/06/21 05:40:53;;;;;;;3.85;1.50;;;;;;;34.25;30.04;100699.72;2104727;28;20101;-74
2022/06/21 05:42:19;;;;;;;4.40;1.30;;;;;;;34.37;29.82;100711.50;2118350;27;20058;-74
2022/06/21 05:43:45;;;;;;;3.67;1.33;;;;;;;34.38;29.58;100707.75;2098143;28;20083;-74
2022/06/21 05:45:12;;;;;;;3.58;1.40;;;;;;;34.40;29.65;100703.88;2093466;28;20136;-74
2022/06/21 05:46:42;;;;;;;4.57;1.95;;;;;;;34.56;29.78;100703.44;2102413;28;20106;-74
2022/06/21 05:48:13;;;;;;;4.75;1.63;;;;;;;34.72;29.48;100701.13;2103938;28;20062;-74
2022/06/21 05:49:38;;;;;;;3.08;1.20;;;;;;;34.79;29.31;100705.09;2103662;28;20502;-74
2022/06/21 05:51:02;;;;;;;1.35;1.08;;;;;;;34.91;28.99;100708.66;2097554;28;20113;-75
2022/06/21 05:52:31;;;;;;;7.30;1.30;;;;;;;34.89;28.96;100701.56;2109257;28;20055;-75
2022/06/21 05:53:56;;;;;;;1.30;1.10;;;;;;;34.81;28.89;100704.97;2111368;28;20047;-75
2022/06/21 05:55:26;;;;;;;3.20;1.20;;;;;;;34.91;28.57;100707.78;2111467;28;20052;-75
2022/06/21 05:56:51;;;;;;;4.88;1.30;;;;;;;34.93;28.69;100706.63;2108483;28;20109;-75
2022/06/21 05:58:19;;;;;;;5.10;1.20;;;;;;;34.97;28.74;100710.00;2110624;28;20564;-74
2022/06/21 05:59:42;;;;;;;3.33;1.25;;;;;;;34.93;28.78;100714.88;2110472;28;20126;-75
2022/06/21 06:01:10;;;;;;;4.10;1.20;;;;;;;34.90;28.88;100714.28;2099841;28;20691;-75
2022/06/21 06:02:42;;;;;;;3.83;1.55;;;;;;;34.93;28.91;100714.00;2102617;28;20794;-75
2022/06/21 06:04:10;;;;;;;2.17;1.10;;;;;;;34.87;29.14;100714.53;2104084;28;20052;-76
2022/06/21 06:05:35;;;;;;;3.20;1.23;;;;;;;34.91;29.34;100721.53;2112041;28;20048;-75
2022/06/21 06:06:59;;;;;;;3.38;1.23;;;;;;;35.08;29.16;100718.16;2097177;28;20101;-75
2022/06/21 06:08:23;;;;;;;2.05;1.13;;;;;;;35.28;28.97;100721.94;2111582;28;20135;-75
2022/06/21 06:09:50;;;;;;;2.85;1.30;;;;;;;35.37;28.77;100721.13;2099124;28;20067;-74
2022/06/21 06:11:18;;;;;;;3.45;1.13;;;;;;;35.33;28.55;100720.50;2103251;28;20088;-75
2022/06/21 06:12:43;;;;;;;4.20;1.80;;;;;;;35.27;28.80;100721.06;2102639;28;20091;-75
2022/06/21 06:14:06;;;;;;;2.65;1.00;;;;;;;35.27;28.74;100712.81;2103128;28;20044;-75
2022/06/21 06:15:31;;;;;;;3.50;1.40;;;;;;;35.28;28.65;100724.69;2102586;28;20071;-75
2022/06/21 06:16:57;;;;;;;1.77;1.30;;;;;;;35.38;28.48;100726.47;2104129;28;20048;-75
2022/06/21 06:18:26;;;;;;;2.60;1.50;;;;;;;35.41;28.26;100719.84;2103385;28;20691;-76
2022/06/21 06:19:55;;;;;;;3.80;1.40;;;;;;;35.38;28.50;100729.19;2105225;28;20076;-75
2022/06/21 06:21:29;;;;;;;2.92;1.40;;;;;;;35.45;28.42;100724.91;2105364;28;20044;-76
2022/06/21 06:22:58;;;;;;;4.60;1.27;;;;;;;35.52;28.46;100727.97;2104512;28;20067;-76
2022/06/21 06:24:25;;;;;;;2.83;1.20;;;;;;;35.54;28.00;100729.59;2112167;28;20538;-75
2022/06/21 06:25:50;;;;;;;2.90;1.30;;;;;;;35.42;28.35;100727.94;2105107;28;20125;-75
2022/06/21 06:27:28;;;;;;;1.85;1.48;;;;;;;35.35;28.18;100723.13;2100649;28;20039;-74
2022/06/21 06:28:57;;;;;;;4.10;1.30;;;;;;;35.31;28.40;100727.16;2104995;28;20520;-75
2022/06/21 06:30:25;;;;;;;4.55;1.20;;;;;;;35.27;28.69;100725.69;2102209;28;20051;-75
2022/06/21 06:31:52;;;;;;;2.13;1.10;;;;;;;35.37;28.64;100722.00;2103218;28;20071;-75
2022/06/21 06:33:20;;;;;;;3.10;1.30;;;;;;;35.38;28.38;100723.72;2097082;28;20064;-75
2022/06/21 06:34:47;;;;;;;3.20;1.33;;;;;;;35.30;28.20;100730.91;2101288;28;20079;-75
2022/06/21 06:36:14;;;;;;;3.33;1.27;;;;;;;35.20;28.67;100733.56;2103165;28;20060;-75
2022/06/21 06:37:37;;;;;;;2.20;1.30;;;;;;;35.21;28.55;100724.34;2101454;28;20052;-75
2022/06/21 06:39:01;;;;;;;5.18;1.50;;;;;;;35.26;28.88;100727.56;2111332;28;20109;-75
2022/06/21 06:40:25;;;;;;;2.38;1.20;;;;;;;35.31;28.83;100735.41;2099166;28;20052;-75
2022/06/21 06:41:55;;;;;;;3.30;1.30;;;;;;;35.46;29.13;100728.53;2111495;28;20051;-75
2022/06/21 06:43:23;;;;;;;3.63;1.25;;;;;;;35.69;28.90;100734.72;2107051;28;20064;-75
2022/06/21 06:44:49;;;;;;;4.10;1.55;;;;;;;35.82;28.81;100740.88;2096556;28;20060;-75
2022/06/21 06:46:20;;;;;;;1.80;1.58;;;;;;;35.61;28.94;100742.78;2102905;28;20136;-75
2022/06/21 06:47:47;;;;;;;3.03;1.35;;;;;;;35.57;29.19;100736.69;2096894;28;20048;-75